.
WxDataArchive / Data Records for 2015-11-30
2015-11-29 November 2015 2015-12-01

Data Records for Monday, 30 November 2015

Time	Temp	Chill	HIndex	Humid	Dewpt	 Wind 	HiWind	WindDir	Rain 	Barom
-----	----	-----	------	-----	-----	------	------	-------	-----	-----
00:00	30.3	30.3	30.3	89	27.5	0	2	112	0.00	30.300 
00:05	30.3	30.3	30.3	89	27.5	0	1	112	0.00	30.300 
00:10	30.1	30.1	30.1	89	27.3	0	2	112	0.00	30.300 
00:15	30.1	30.1	30.1	89	27.3	0	3	68	0.00	30.292 
00:20	30.1	30.1	30.1	89	27.3	0	2	68	0.00	30.292 
00:25	30.1	30.1	30.1	89	27.3	0	3	68	0.00	30.292 
00:30	30.1	30.1	30.1	89	27.3	0	2	68	0.00	30.288 
00:35	30.1	30.1	30.1	89	27.3	0	2	68	0.00	30.288 
00:40	30.1	30.1	30.1	89	27.3	0	2	68	0.00	30.288 
00:45	30.1	30.1	30.1	89	27.3	0	2	112	0.00	30.277 
00:50	30.1	30.1	30.1	89	27.3	0	4	90	0.00	30.277 
00:55	30.1	30.1	30.1	89	27.3	0	4	90	0.00	30.277 
01:00	30.1	30.1	30.1	89	27.3	1	3	22	0.00	30.270 
01:05	30.1	30.1	30.1	89	27.3	0	3	22	0.00	30.270 
01:10	30.1	30.1	30.1	89	27.3	0	4	68	0.00	30.270 
01:15	30.3	30.3	30.3	89	27.5	1	3	90	0.00	30.262 
01:20	30.3	30.3	30.3	89	27.5	0	3	45	0.00	30.262 
01:25	30.3	30.3	30.3	90	27.7	1	5	45	0.00	30.262 
01:30	30.3	30.3	30.3	90	27.7	1	4	90	0.00	30.257 
01:35	30.4	30.4	30.4	90	27.8	1	4	0	0.00	30.257 
01:40	30.4	30.4	30.4	90	27.8	1	6	112	0.00	30.257 
01:45	30.6	30.6	30.6	90	28.0	0	4	45	0.00	30.254 
01:50	30.6	30.6	30.6	90	28.0	1	5	112	0.00	30.254 
01:55	30.7	30.7	30.7	90	28.1	1	6	112	0.00	30.254 
02:00	30.9	30.9	30.9	90	28.3	1	3	68	0.00	30.257 
02:05	30.9	30.9	30.9	90	28.3	1	5	90	0.00	30.257 
02:10	30.9	30.9	30.9	90	28.3	1	4	90	0.00	30.257 
02:15	30.9	30.9	30.9	90	28.3	1	3	68	0.00	30.254 
02:20	30.7	30.7	30.7	90	28.1	0	3	68	0.00	30.254 
02:25	30.7	30.7	30.7	90	28.1	1	4	90	0.00	30.254 
02:30	30.7	30.7	30.7	90	28.1	0	4	90	0.00	30.246 
02:35	30.7	30.7	30.7	90	28.1	1	7	90	0.00	30.246 
02:40	30.7	30.7	30.7	90	28.1	1	5	68	0.00	30.246 
02:45	30.7	30.7	30.7	90	28.1	2	6	90	0.00	30.243 
02:50	30.6	30.6	30.6	90	28.0	1	7	112	0.00	30.243 
02:55	30.6	30.6	30.6	90	28.0	1	4	112	0.00	30.243 
03:00	30.6	30.6	30.6	90	28.0	1	4	90	0.00	30.243 
03:05	30.6	30.6	30.6	90	28.0	1	4	90	0.00	30.243 
03:10	30.6	30.6	30.6	90	28.0	0	2	90	0.00	30.243 
03:15	30.4	30.4	30.4	90	27.8	1	5	90	0.00	30.240 
03:20	30.4	30.4	30.4	90	27.8	1	5	112	0.00	30.240 
03:25	30.4	30.4	30.4	90	27.8	1	6	90	0.00	30.240 
03:30	30.4	30.4	30.4	90	27.8	1	6	112	0.00	30.227 
03:35	30.3	30.3	30.3	91	28.0	2	6	112	0.00	30.227 
03:40	30.3	30.3	30.3	91	28.0	1	6	90	0.00	30.227 
03:45	30.3	30.3	30.3	91	28.0	1	4	68	0.00	30.225 
03:50	30.3	30.3	30.3	91	28.0	2	5	90	0.00	30.225 
03:55	30.1	30.1	30.1	91	27.8	2	6	90	0.00	30.225 
04:00	30.0	30.0	30.0	91	27.7	1	4	112	0.00	30.227 
04:05	29.8	29.8	29.8	91	27.5	1	3	112	0.00	30.227 
04:10	29.7	29.7	29.7	91	27.4	0	2	112	0.00	30.227 
04:15	29.7	29.7	29.7	91	27.4	0	2	112	0.00	30.227 
04:20	29.5	29.5	29.5	91	27.2	1	3	112	0.00	30.227 
04:25	29.5	29.5	29.5	91	27.2	1	3	112	0.00	30.227 
04:30	29.4	29.4	29.4	91	27.1	1	5	112	0.00	30.223 
04:35	29.4	29.4	29.4	91	27.1	1	4	90	0.00	30.223 
04:40	29.4	29.4	29.4	91	27.1	0	6	90	0.00	30.223 
04:45	29.4	29.4	29.4	91	27.1	0	1	90	0.00	30.222 
04:50	29.4	29.4	29.4	91	27.1	1	4	90	0.00	30.222 
04:55	29.4	29.4	29.4	92	27.4	0	2	68	0.00	30.222 
05:00	29.4	29.4	29.4	92	27.4	0	2	68	0.00	30.215 
05:05	29.4	29.4	29.4	92	27.4	0	1	68	0.00	30.215 
05:10	29.4	29.4	29.4	92	27.4	0	3	68	0.00	30.215 
05:15	29.4	29.4	29.4	92	27.4	1	4	90	0.00	30.215 
05:20	29.4	29.4	29.4	92	27.4	1	3	90	0.00	30.215 
05:25	29.5	29.5	29.5	92	27.5	0	3	90	0.00	30.215 
05:30	29.5	29.5	29.5	92	27.5	0	1	90	0.00	30.219 
05:35	29.5	29.5	29.5	92	27.5	0	2	90	0.00	30.219 
05:40	29.5	29.5	29.5	92	27.5	1	4	90	0.00	30.219 
05:45	29.5	29.5	29.5	92	27.5	1	3	90	0.00	30.223 
05:50	29.5	29.5	29.5	92	27.5	0	2	90	0.00	30.223 
05:55	29.5	29.5	29.5	92	27.5	1	2	90	0.00	30.223 
06:00	29.4	29.4	29.4	92	27.4	1	2	90	0.00	30.219 
06:05	29.4	29.4	29.4	92	27.4	1	4	90	0.00	30.219 
06:10	29.3	29.3	29.3	92	27.3	1	5	90	0.00	30.219 
06:15	29.3	29.3	29.3	92	27.3	0	3	112	0.00	30.213 
06:20	29.3	29.3	29.3	92	27.3	1	3	112	0.00	30.213 
06:25	29.3	29.3	29.3	92	27.3	0	2	112	0.00	30.213 
06:30	29.4	29.4	29.4	92	27.4	0	3	112	0.00	30.225 
06:35	29.4	29.4	29.4	92	27.4	1	3	112	0.00	30.225 
06:40	29.5	29.5	29.5	92	27.5	0	2	112	0.00	30.225 
06:45	29.5	29.5	29.5	92	27.5	0	1	112	0.00	30.213 
06:50	29.7	29.7	29.7	92	27.7	0	2	112	0.00	30.213 
06:55	29.7	29.7	29.7	92	27.7	0	2	112	0.00	30.213 
07:00	29.8	29.8	29.8	92	27.8	0	3	112	0.00	30.212 
07:05	29.8	29.8	29.8	92	27.8	0	3	112	0.00	30.212 
07:10	30.0	30.0	30.0	92	28.0	1	3	112	0.00	30.212 
07:15	30.0	30.0	30.0	92	28.0	1	5	112	0.00	30.214 
07:20	30.1	30.1	30.1	92	28.1	1	3	68	0.00	30.214 
07:25	30.1	30.1	30.1	92	28.1	1	4	112	0.00	30.214 
07:30	30.1	30.1	30.1	92	28.1	2	4	112	0.00	30.209 
07:35	30.1	30.1	30.1	92	28.1	1	5	90	0.00	30.209 
07:40	30.3	30.3	30.3	92	28.3	0	3	90	0.00	30.209 
07:45	30.3	30.3	30.3	92	28.3	2	6	90	0.00	30.210 
07:50	30.3	30.3	30.3	92	28.3	2	6	112	0.00	30.210 
07:55	30.3	30.3	30.3	92	28.3	2	5	112	0.00	30.210 
08:00	30.3	30.3	30.3	93	28.5	1	5	68	0.00	30.200 
08:05	30.4	30.4	30.4	93	28.6	1	5	90	0.00	30.200 
08:10	30.4	30.4	30.4	93	28.6	1	6	112	0.00	30.200 
08:15	30.6	30.6	30.6	93	28.8	1	6	112	0.00	30.199 
08:20	30.7	30.7	30.7	93	28.9	2	7	112	0.00	30.199 
08:25	30.9	30.9	30.9	93	29.1	3	10	90	0.00	30.199 
08:30	31.2	31.2	31.2	93	29.4	2	10	90	0.00	30.199 
08:35	31.3	31.3	31.3	93	29.5	2	9	112	0.00	30.199 
08:40	31.6	31.6	31.6	93	29.8	1	4	90	0.00	30.199 
08:45	31.8	31.8	31.8	93	30.0	1	4	90	0.00	30.195 
08:50	32.1	32.1	32.1	93	30.3	1	3	22	0.00	30.195 
08:55	32.2	32.2	32.2	94	30.7	2	6	112	0.00	30.195 
09:00	32.5	32.5	32.5	93	30.7	3	10	90	0.00	30.195 
09:05	32.7	32.7	32.7	93	30.9	2	10	90	0.00	30.195 
09:10	32.8	32.8	32.8	93	31.0	3	10	135	0.00	30.195 
09:15	33.1	33.1	33.1	93	31.3	2	6	90	0.00	30.194 
09:20	33.2	33.2	33.2	93	31.4	2	11	90	0.00	30.194 
09:25	33.4	33.4	33.4	93	31.6	3	10	112	0.00	30.194 
09:30	33.5	33.5	33.5	93	31.7	3	9	112	0.00	30.185 
09:35	33.7	33.7	33.7	93	31.9	3	7	112	0.00	30.185 
09:40	33.8	33.8	33.8	92	31.7	3	9	90	0.00	30.185 
09:45	34.1	34.1	34.1	92	32.0	2	6	90	0.00	30.189 
09:50	34.4	34.4	34.4	92	32.3	1	4	112	0.00	30.189 
09:55	34.7	34.7	34.7	92	32.6	3	7	112	0.00	30.189 
10:00	35.0	35.0	35.0	91	32.6	3	7	112	0.00	30.187 
10:05	35.3	31.9	35.3	91	32.9	4	9	90	0.00	30.187 
10:10	35.8	35.8	35.8	90	33.2	3	10	90	0.00	30.187 
10:15	36.0	36.0	36.0	89	33.1	3	6	112	0.00	30.185 
10:20	36.3	36.3	36.3	89	33.4	3	12	112	0.00	30.185 
10:25	36.6	36.6	36.6	88	33.4	3	10	90	0.00	30.185 
10:30	36.9	33.7	36.9	87	33.4	4	12	90	0.00	30.182 
10:35	37.3	34.2	37.3	86	33.5	4	12	90	0.00	30.182 
10:40	37.8	37.8	37.8	85	33.7	3	9	90	0.00	30.182 
10:45	37.9	37.9	37.9	84	33.5	3	7	90	0.00	30.183 
10:50	37.9	34.9	37.9	83	33.2	4	13	112	0.00	30.183 
10:55	38.2	38.2	38.2	83	33.5	3	13	112	0.00	30.183 
11:00	38.6	38.6	38.6	82	33.6	3	11	112	0.00	30.177 
11:05	38.9	36.0	38.9	80	33.3	4	12	90	0.00	30.177 
11:10	39.2	39.2	39.2	80	33.6	3	10	90	0.00	30.177 
11:15	39.6	39.6	39.6	79	33.6	3	7	90	0.00	30.173 
11:20	39.9	39.9	39.9	78	33.6	3	10	90	0.00	30.173 
11:25	40.2	40.2	40.2	77	33.6	2	9	112	0.00	30.173 
11:30	40.5	37.9	40.5	77	33.9	4	9	112	0.00	30.171 
11:35	40.6	40.6	40.6	77	34.0	2	7	90	0.00	30.171 
11:40	40.8	40.8	40.8	76	33.8	3	9	90	0.00	30.171 
11:45	40.9	38.4	40.9	75	33.6	4	7	112	0.00	30.161 
11:50	41.2	38.7	41.2	73	33.2	4	8	90	0.00	30.161 
11:55	41.5	41.5	41.5	72	33.2	3	6	112	0.00	30.161 
12:00	41.8	38.6	41.8	69	32.4	5	10	90	0.00	30.164 
12:05	42.1	39.7	42.1	69	32.7	4	10	90	0.00	30.164 
12:10	42.3	40.0	42.3	68	32.5	4	9	112	0.00	30.164 
12:15	42.6	40.3	42.6	67	32.4	4	11	112	0.00	30.155 
12:20	42.8	39.8	42.8	66	32.2	5	11	90	0.00	30.155 
12:25	42.8	39.8	42.8	65	31.9	5	10	112	0.00	30.155 
12:30	43.1	40.9	43.1	66	32.5	4	7	90	0.00	30.144 
12:35	43.1	43.1	43.1	66	32.5	3	7	90	0.00	30.144 
12:40	43.2	43.2	43.2	65	32.2	3	9	68	0.00	30.144 
12:45	43.1	40.9	43.1	65	32.1	4	9	90	0.00	30.139 
12:50	43.1	40.9	43.1	63	31.4	4	9	90	0.00	30.139 
12:55	43.1	40.9	43.1	63	31.4	4	10	90	0.00	30.139 
13:00	43.2	41.0	43.2	64	31.9	4	7	90	0.00	30.124 
13:05	43.5	43.5	43.5	65	32.5	3	7	112	0.00	30.124 
13:10	43.6	41.5	43.6	65	32.6	4	10	90	0.00	30.124 
13:15	43.8	43.8	43.8	64	32.4	3	9	112	0.00	30.120 
13:20	43.9	43.9	43.9	62	31.7	3	10	90	0.00	30.120 
13:25	44.1	44.1	44.1	62	31.9	3	9	90	0.00	30.120 
13:30	44.2	41.4	44.2	61	31.6	5	10	112	0.00	30.113 
13:35	44.3	42.3	44.3	60	31.3	4	7	112	0.00	30.113 
13:40	44.5	42.5	44.5	60	31.5	4	9	90	0.00	30.113 
13:45	44.5	42.5	44.5	60	31.5	4	9	112	0.00	30.106 
13:50	44.6	44.6	44.6	61	32.0	3	11	90	0.00	30.106 
13:55	44.6	44.6	44.6	60	31.6	3	11	112	0.00	30.106 
14:00	44.8	42.9	44.8	61	32.2	4	9	112	0.00	30.099 
14:05	44.9	43.0	44.9	58	31.0	4	10	90	0.00	30.099 
14:10	45.1	45.1	45.1	59	31.6	3	11	90	0.00	30.099 
14:15	45.2	45.2	45.2	58	31.3	3	7	90	0.00	30.091 
14:20	45.4	45.4	45.4	57	31.1	3	9	90	0.00	30.091 
14:25	45.5	45.5	45.5	57	31.2	3	7	112	0.00	30.091 
14:30	45.7	43.9	45.7	57	31.3	4	10	90	0.00	30.085 
14:35	45.7	45.7	45.7	58	31.8	2	7	112	0.00	30.085 
14:40	45.7	45.7	45.7	57	31.3	3	7	90	0.00	30.085 
14:45	45.8	45.8	45.8	57	31.4	2	9	112	0.00	30.075 
14:50	46.0	46.0	46.0	57	31.6	2	7	112	0.00	30.075 
14:55	46.0	46.0	46.0	56	31.2	3	10	112	0.00	30.075 
15:00	46.1	44.4	46.1	56	31.3	4	10	90	0.00	30.064 
15:05	46.2	46.2	46.2	56	31.4	3	10	90	0.00	30.064 
15:10	46.2	46.2	46.2	57	31.8	3	7	90	0.00	30.064 
15:15	46.2	46.2	46.2	56	31.4	3	10	90	0.00	30.061 
15:20	46.2	46.2	46.2	55	30.9	3	9	90	0.00	30.061 
15:25	46.2	46.2	46.2	55	30.9	2	6	112	0.00	30.061 
15:30	46.2	46.2	46.2	54	30.5	2	6	90	0.00	30.060 
15:35	46.4	46.4	46.4	54	30.7	1	6	90	0.00	30.060 
15:40	46.4	46.4	46.4	55	31.1	3	6	90	0.00	30.060 
15:45	46.5	46.5	46.5	54	30.8	3	9	112	0.00	30.062 
15:50	46.7	46.7	46.7	56	31.8	1	5	90	0.00	30.062 
15:55	46.7	46.7	46.7	56	31.8	1	4	68	0.00	30.062 
16:00	46.7	46.7	46.7	56	31.8	3	8	90	0.00	30.062 
16:05	46.7	46.7	46.7	55	31.4	3	10	90	0.00	30.062 
16:10	46.5	46.5	46.5	56	31.7	3	10	90	0.00	30.062 
16:15	46.5	46.5	46.5	56	31.7	2	6	112	0.00	30.060 
16:20	46.4	46.4	46.4	56	31.6	2	6	90	0.00	30.060 
16:25	46.4	46.4	46.4	56	31.6	3	9	90	0.00	30.060 
16:30	46.2	46.2	46.2	57	31.8	2	8	90	0.00	30.058 
16:35	46.1	46.1	46.1	57	31.7	2	5	90	0.00	30.058 
16:40	46.0	46.0	46.0	58	32.1	3	6	112	0.00	30.058 
16:45	45.7	45.7	45.7	58	31.8	3	6	90	0.00	30.049 
16:50	45.5	45.5	45.5	59	32.0	2	6	112	0.00	30.049 
16:55	45.4	45.4	45.4	59	31.9	2	8	90	0.00	30.049 
17:00	45.4	45.4	45.4	59	31.9	2	6	90	0.00	30.051 
17:05	45.2	45.2	45.2	60	32.1	1	6	90	0.00	30.051 
17:10	44.9	44.9	44.9	59	31.5	3	6	90	0.00	30.051 
17:15	44.8	44.8	44.8	60	31.8	2	6	90	0.00	30.055 
17:20	44.6	44.6	44.6	60	31.6	2	4	90	0.00	30.055 
17:25	44.3	44.3	44.3	61	31.7	1	4	90	0.00	30.055 
17:30	44.2	44.2	44.2	62	32.0	3	9	90	0.00	30.050 
17:35	43.9	41.8	43.9	60	30.9	4	11	90	0.00	30.050 
17:40	43.9	41.8	43.9	60	30.9	4	12	90	0.00	30.050 
17:45	43.9	41.8	43.9	59	30.5	4	7	90	0.00	30.050 
17:50	43.8	41.7	43.8	60	30.8	4	9	90	0.00	30.050 
17:55	43.6	40.7	43.6	60	30.6	5	13	112	0.00	30.050 
18:00	43.5	40.6	43.5	61	31.0	5	10	90	0.00	30.049 
18:05	43.3	43.3	43.3	62	31.2	3	8	90	0.00	30.049 
18:10	43.1	40.9	43.1	63	31.4	4	11	90	0.00	30.049 
18:15	42.9	40.7	42.9	64	31.6	4	10	112	0.00	30.049 
18:20	42.8	42.8	42.8	65	31.9	3	6	90	0.00	30.049 
18:25	42.5	40.2	42.5	66	32.0	4	9	90	0.00	30.049 
18:30	42.3	40.0	42.3	67	32.1	4	10	90	0.00	30.052 
18:35	42.2	39.1	42.2	68	32.4	5	12	112	0.00	30.052 
18:40	41.9	39.5	41.9	69	32.5	4	12	112	0.00	30.052 
18:45	41.9	39.5	41.9	70	32.8	4	10	112	0.00	30.054 
18:50	41.8	41.8	41.8	71	33.1	3	11	90	0.00	30.054 
18:55	41.5	37.5	41.5	73	33.5	6	13	90	0.00	30.054 
19:00	41.3	38.0	41.3	74	33.6	5	11	90	0.00	30.052 
19:05	41.1	38.6	41.1	76	34.1	4	10	90	0.00	30.052 
19:10	40.9	38.4	40.9	77	34.3	4	10	112	0.00	30.052 
19:15	40.9	37.5	40.9	77	34.3	5	11	90	0.00	30.049 
19:20	40.8	38.2	40.8	78	34.5	4	9	112	0.00	30.049 
19:25	40.8	38.2	40.8	79	34.8	4	8	90	0.00	30.049 
19:30	40.6	38.0	40.6	80	34.9	4	10	112	0.00	30.047 
19:35	40.5	37.9	40.5	80	34.8	4	9	90	0.00	30.047 
19:40	40.3	40.3	40.3	81	34.9	3	9	112	0.00	30.047 
19:45	40.3	40.3	40.3	81	34.9	3	10	112	0.00	30.050 
19:50	40.2	36.7	40.2	81	34.8	5	11	112	0.00	30.050 
19:55	40.2	37.5	40.2	81	34.8	4	11	90	0.00	30.050 
20:00	40.1	37.4	40.1	82	35.1	4	10	90	0.00	30.043 
20:05	40.1	40.1	40.1	82	35.1	2	9	90	0.00	30.043 
20:10	40.1	40.1	40.1	82	35.1	3	8	90	0.00	30.043 
20:15	40.1	40.1	40.1	82	35.1	2	6	90	0.00	30.043 
20:20	40.1	40.1	40.1	82	35.1	3	5	90	0.00	30.043 
20:25	40.1	36.6	40.1	82	35.1	5	10	90	0.00	30.043 
20:30	40.2	37.5	40.2	83	35.5	4	9	90	0.00	30.033 
20:35	40.2	37.5	40.2	83	35.5	4	12	90	0.00	30.033 
20:40	40.2	37.5	40.2	83	35.5	4	11	90	0.00	30.033 
20:45	40.2	40.2	40.2	83	35.5	3	7	90	0.00	30.030 
20:50	40.2	40.2	40.2	83	35.5	3	7	90	0.00	30.030 
20:55	40.2	40.2	40.2	83	35.5	3	7	90	0.00	30.030 
21:00	40.3	37.7	40.3	83	35.6	4	11	90	0.00	30.028 
21:05	40.3	40.3	40.3	83	35.6	3	8	90	0.00	30.028 
21:10	40.3	37.7	40.3	83	35.6	4	9	90	0.00	30.028 
21:15	40.3	37.7	40.3	83	35.6	4	11	90	0.00	30.013 
21:20	40.3	40.3	40.3	83	35.6	2	6	90	0.00	30.013 
21:25	40.3	40.3	40.3	84	35.9	3	7	90	0.00	30.013 
21:30	40.5	40.5	40.5	84	36.1	3	7	112	0.00	30.014 
21:35	40.5	37.9	40.5	84	36.1	4	10	90	0.00	30.014 
21:40	40.5	40.5	40.5	84	36.1	3	11	90	0.00	30.014 
21:45	40.6	38.0	40.6	84	36.2	4	7	90	0.00	30.011 
21:50	40.6	40.6	40.6	84	36.2	3	10	68	0.00	30.011 
21:55	40.6	38.0	40.6	84	36.2	4	9	112	0.00	30.011 
22:00	40.6	40.6	40.6	84	36.2	3	11	112	0.00	29.997 
22:05	40.6	37.2	40.6	84	36.2	5	13	90	0.00	29.997 
22:10	40.6	38.0	40.6	85	36.4	4	10	112	0.00	29.997 
22:15	40.6	40.6	40.6	85	36.4	3	6	90	0.00	29.991 
22:20	40.6	40.6	40.6	85	36.4	3	10	90	0.00	29.991 
22:25	40.6	40.6	40.6	85	36.4	3	7	90	0.00	29.991 
22:30	40.6	38.0	40.6	86	36.7	4	10	90	0.00	29.988 
22:35	40.6	38.0	40.6	86	36.7	4	9	90	0.00	29.988 
22:40	40.6	40.6	40.6	86	36.7	3	7	90	0.00	29.988 
22:45	40.6	40.6	40.6	87	37.0	3	10	90	0.00	29.978 
22:50	40.6	38.0	40.6	87	37.0	4	10	90	0.00	29.978 
22:55	40.6	38.0	40.6	88	37.3	4	10	90	0.00	29.978 
23:00	40.5	37.9	40.5	88	37.2	4	8	90	0.00	29.971 
23:05	40.5	37.9	40.5	89	37.5	4	12	90	0.00	29.971 
23:10	40.5	40.5	40.5	89	37.5	3	7	90	0.00	29.971 
23:15	40.5	40.5	40.5	90	37.8	3	9	112	0.00	29.971 
23:20	40.5	40.5	40.5	90	37.8	3	7	112	0.00	29.971 
23:25	40.5	40.5	40.5	90	37.8	3	6	90	0.00	29.971 
23:30	40.3	40.3	40.3	91	37.9	3	7	112	0.00	29.957 
23:35	40.3	40.3	40.3	91	37.9	3	7	90	0.00	29.957 
23:40	40.3	40.3	40.3	91	37.9	3	7	112	0.00	29.957 
23:45	40.3	40.3	40.3	91	37.9	2	4	90	0.00	29.953 
23:50	40.3	40.3	40.3	91	37.9	2	5	90	0.00	29.953 
23:55	40.5	40.5	40.5	91	38.1	3	6	90	0.00	29.953 

CoCoRaHS
IN-AL-39
A2 Web Hosting
Creative Commons License
GoDaddy
search engine by freefind advanced

loaded 2018-11-17 22:27:22 • last modified 2010-11-18 10:43:29
Privacy PolicyDisclaimer
• wx.awcolley.com is powered by PmWiki v.2002016 •
• all content (unless otherwise noted) © 2018 A W Colley